메인 페이지
METAR-TAF:

METAR-TAF

공항 :

히베이랑프레투, 상파울루, 브라질

위도: 21-08S, 경도: 047-47W, 고도: 549m

현재 날씨관측

예보는 35분 전, 06:00시(UTC)에 발표되었습니다.
남동8kt
온도 20°C
습도 73%
기압 1020 hPa
시정 10km 이상
고도 4500ft 상공 구름 보통

METAR: SBRP 230600Z 13008KT 9999 SCT045 20/15 Q1020

시각: 03:35 (06:35 UTC)

예보

예보는 4 시간 35분 전, 02:00시(UTC)에 발표되었습니다.
예보 대상 시간: 23일 06시부터 23일 18시까지 (UTC)
남동8kt
시정 10km 이상
1500m 미만 상공 구름 및 적란운 없음
전환 중
23일 11시부터 23일 13시까지 (UTC)
고도 2300ft 상공 구름 많음
전환 중
23일 13시부터 23일 15시까지 (UTC)
고도 4000ft 상공 구름 보통

TAF: SBRP 230200Z 2306/2318 14008KT CAVOK TN17/2309Z TX28/2317Z BECMG 2311/2313 BKN023 BECMG 2313/2315 SCT040 RMK PGQ

4,000개 이상의 공항 관측 자료 및 예보 (METAR 및 TAF 보고).

지도상에서 검색 가능한 기상관측소가 노란 점과 빨간 점으로 표시되어 있습니다.

기상관측소 명을 보려면 표시 위로 마우스를 이동하세요.

날씨 관측과 예보를 보려면 클릭하세요.

지도 변경 : 확대하려면 엑스 표시가 있는 녹색 버튼, 축소하려면 빼기 표시가 있는 녹색 버튼, 다음 페이지의 지도를 보려면 녹색 화살표를 클릭하세요.


METAR-TAF: